sensor_id;sensor_type;location;lat;lon;timestamp;P1;durP1;ratioP1;P2;durP2;ratioP2
32214;SDS011;18708;53.124;23.190;2022-08-19T17:27:57;14.45;;;5.78;;
32214;SDS011;18708;53.124;23.190;2022-08-19T17:30:34;21.20;;;5.60;;
32214;SDS011;18708;53.124;23.190;2022-08-19T17:33:01;15.10;;;4.97;;
32214;SDS011;18708;53.124;23.190;2022-08-19T17:35:27;11.23;;;5.28;;
32214;SDS011;18708;53.124;23.190;2022-08-19T17:37:53;14.13;;;5.25;;
32214;SDS011;18708;53.124;23.190;2022-08-19T17:40:19;13.85;;;4.65;;
32214;SDS011;18708;53.124;23.190;2022-08-19T17:42:45;9.48;;;4.22;;
32214;SDS011;18708;53.124;23.190;2022-08-19T17:45:11;13.18;;;5.15;;
32214;SDS011;18708;53.124;23.190;2022-08-19T17:47:38;16.77;;;4.28;;
32214;SDS011;18708;53.124;23.190;2022-08-19T17:50:06;8.93;;;4.20;;
32214;SDS011;18708;53.124;23.190;2022-08-19T17:52:34;20.98;;;5.35;;
32214;SDS011;18708;53.124;23.190;2022-08-19T17:55:02;21.67;;;6.63;;
32214;SDS011;18708;53.124;23.190;2022-08-19T17:57:28;24.10;;;7.07;;
32214;SDS011;18708;53.124;23.190;2022-08-19T17:59:54;25.55;;;6.82;;
32214;SDS011;18708;53.124;23.190;2022-08-19T18:02:20;21.92;;;6.53;;
32214;SDS011;18708;53.124;23.190;2022-08-19T18:04:45;21.90;;;5.68;;
32214;SDS011;18708;53.124;23.190;2022-08-19T18:07:11;15.75;;;5.00;;
32214;SDS011;18708;53.124;23.190;2022-08-19T18:09:37;13.52;;;5.25;;
32214;SDS011;18708;53.124;23.190;2022-08-19T18:12:05;12.77;;;4.97;;
32214;SDS011;18708;53.124;23.190;2022-08-19T18:14:34;12.15;;;5.65;;
32214;SDS011;18708;53.124;23.190;2022-08-19T18:17:03;12.85;;;5.20;;
32214;SDS011;18708;53.124;23.190;2022-08-19T18:19:35;10.60;;;5.10;;
32214;SDS011;18708;53.124;23.190;2022-08-19T18:22:02;7.57;;;4.25;;
32214;SDS011;18708;53.124;23.190;2022-08-19T18:24:28;8.05;;;4.70;;
32214;SDS011;18708;53.124;23.190;2022-08-19T18:26:54;8.27;;;4.75;;
32214;SDS011;18708;53.124;23.190;2022-08-19T18:29:19;10.57;;;4.75;;
32214;SDS011;18708;53.124;23.190;2022-08-19T18:31:45;12.02;;;6.07;;
32214;SDS011;18708;53.124;23.190;2022-08-19T18:34:12;8.32;;;5.30;;
32214;SDS011;18708;53.124;23.190;2022-08-19T18:36:39;8.60;;;4.53;;
32214;SDS011;18708;53.124;23.190;2022-08-19T18:39:05;10.30;;;5.32;;
32214;SDS011;18708;53.124;23.190;2022-08-19T18:41:50;7.65;;;4.93;;
32214;SDS011;18708;53.124;23.190;2022-08-19T18:44:35;9.15;;;5.10;;
32214;SDS011;18708;53.124;23.190;2022-08-19T18:47:21;14.65;;;6.53;;
32214;SDS011;18708;53.124;23.190;2022-08-19T18:50:05;11.68;;;5.38;;
32214;SDS011;18708;53.124;23.190;2022-08-19T18:52:34;12.85;;;6.93;;
32214;SDS011;18708;53.124;23.190;2022-08-19T18:55:01;13.55;;;6.60;;
32214;SDS011;18708;53.124;23.190;2022-08-19T18:57:27;15.18;;;6.80;;
32214;SDS011;18708;53.124;23.190;2022-08-19T18:59:53;19.52;;;6.30;;
32214;SDS011;18708;53.124;23.190;2022-08-19T19:02:20;12.20;;;5.72;;
32214;SDS011;18708;53.124;23.190;2022-08-19T19:04:49;13.52;;;6.03;;
32214;SDS011;18708;53.124;23.190;2022-08-19T19:07:15;16.17;;;6.03;;
32214;SDS011;18708;53.124;23.190;2022-08-19T19:09:44;10.48;;;5.53;;
32214;SDS011;18708;53.124;23.190;2022-08-19T19:12:14;12.63;;;6.15;;
32214;SDS011;18708;53.124;23.190;2022-08-19T19:14:42;9.63;;;5.18;;
32214;SDS011;18708;53.124;23.190;2022-08-19T19:17:12;11.32;;;5.05;;
32214;SDS011;18708;53.124;23.190;2022-08-19T19:19:40;13.43;;;5.63;;
32214;SDS011;18708;53.124;23.190;2022-08-19T19:22:07;11.52;;;5.47;;
32214;SDS011;18708;53.124;23.190;2022-08-19T19:24:38;12.82;;;5.75;;
32214;SDS011;18708;53.124;23.190;2022-08-19T19:27:08;10.63;;;5.68;;
32214;SDS011;18708;53.124;23.190;2022-08-19T19:29:36;9.70;;;6.15;;
32214;SDS011;18708;53.124;23.190;2022-08-19T19:32:06;17.10;;;6.50;;
32214;SDS011;18708;53.124;23.190;2022-08-19T19:34:36;12.50;;;6.88;;
32214;SDS011;18708;53.124;23.190;2022-08-19T19:37:03;13.15;;;5.95;;
32214;SDS011;18708;53.124;23.190;2022-08-19T19:39:29;12.07;;;6.00;;
32214;SDS011;18708;53.124;23.190;2022-08-19T19:41:56;10.68;;;6.05;;
32214;SDS011;18708;53.124;23.190;2022-08-19T19:44:22;11.02;;;5.78;;
32214;SDS011;18708;53.124;23.190;2022-08-19T19:46:48;11.65;;;7.63;;
32214;SDS011;18708;53.124;23.190;2022-08-19T19:49:13;17.42;;;8.73;;
32214;SDS011;18708;53.124;23.190;2022-08-19T19:51:39;9.48;;;7.30;;
32214;SDS011;18708;53.124;23.190;2022-08-19T19:54:06;14.43;;;7.88;;
32214;SDS011;18708;53.124;23.190;2022-08-19T19:56:37;12.25;;;7.97;;
32214;SDS011;18708;53.124;23.190;2022-08-19T19:59:05;14.43;;;7.20;;
32214;SDS011;18708;53.124;23.190;2022-08-19T20:01:31;10.95;;;6.95;;
32214;SDS011;18708;53.124;23.190;2022-08-19T20:03:57;17.33;;;6.10;;
32214;SDS011;18708;53.124;23.190;2022-08-19T20:06:25;8.88;;;6.32;;
32214;SDS011;18708;53.124;23.190;2022-08-19T20:08:53;13.90;;;6.60;;
32214;SDS011;18708;53.124;23.190;2022-08-19T20:11:42;12.38;;;5.85;;
32214;SDS011;18708;53.124;23.190;2022-08-19T20:14:14;11.10;;;6.45;;
32214;SDS011;18708;53.124;23.190;2022-08-19T20:16:41;9.18;;;5.85;;
32214;SDS011;18708;53.124;23.190;2022-08-19T20:19:10;8.15;;;5.68;;
32214;SDS011;18708;53.124;23.190;2022-08-19T20:21:39;9.45;;;6.28;;
32214;SDS011;18708;53.124;23.190;2022-08-19T20:24:12;13.73;;;8.52;;
32214;SDS011;18708;53.124;23.190;2022-08-19T20:26:42;18.02;;;11.25;;
32214;SDS011;18708;53.124;23.190;2022-08-19T20:29:09;18.25;;;10.20;;
32214;SDS011;18708;53.124;23.190;2022-08-19T20:31:35;15.85;;;8.27;;
32214;SDS011;18708;53.124;23.190;2022-08-19T20:34:02;13.48;;;7.50;;
32214;SDS011;18708;53.124;23.190;2022-08-19T20:36:28;13.05;;;7.03;;
32214;SDS011;18708;53.124;23.190;2022-08-19T20:38:55;16.83;;;6.80;;
32214;SDS011;18708;53.124;23.190;2022-08-19T20:41:22;12.95;;;6.47;;
32214;SDS011;18708;53.124;23.190;2022-08-19T20:43:48;20.55;;;7.05;;
32214;SDS011;18708;53.124;23.190;2022-08-19T20:46:15;15.02;;;6.88;;
32214;SDS011;18708;53.124;23.190;2022-08-19T20:48:41;12.32;;;6.28;;
32214;SDS011;18708;53.124;23.190;2022-08-19T20:51:07;11.63;;;6.18;;
32214;SDS011;18708;53.124;23.190;2022-08-19T20:53:37;9.25;;;6.15;;
32214;SDS011;18708;53.124;23.190;2022-08-19T20:56:04;14.23;;;6.10;;
32214;SDS011;18708;53.124;23.190;2022-08-19T20:58:30;9.25;;;6.22;;
32214;SDS011;18708;53.124;23.190;2022-08-19T21:00:58;11.75;;;6.68;;
32214;SDS011;18708;53.124;23.190;2022-08-19T21:03:26;11.82;;;6.38;;
32214;SDS011;18708;53.124;23.190;2022-08-19T21:05:54;12.80;;;5.90;;
32214;SDS011;18708;53.124;23.190;2022-08-19T21:08:21;12.77;;;6.55;;
32214;SDS011;18708;53.124;23.190;2022-08-19T21:10:48;12.15;;;6.65;;
32214;SDS011;18708;53.124;23.190;2022-08-19T21:13:16;14.25;;;6.45;;
32214;SDS011;18708;53.124;23.190;2022-08-19T21:15:44;11.90;;;6.28;;
32214;SDS011;18708;53.124;23.190;2022-08-19T21:18:10;12.05;;;6.10;;
32214;SDS011;18708;53.124;23.190;2022-08-19T21:20:38;14.98;;;6.55;;
32214;SDS011;18708;53.124;23.190;2022-08-19T21:23:04;17.63;;;6.70;;
32214;SDS011;18708;53.124;23.190;2022-08-19T21:25:32;15.20;;;6.97;;
32214;SDS011;18708;53.124;23.190;2022-08-19T21:27:58;13.90;;;6.38;;
32214;SDS011;18708;53.124;23.190;2022-08-19T21:30:24;12.40;;;6.80;;
32214;SDS011;18708;53.124;23.190;2022-08-19T21:32:51;16.83;;;6.72;;
32214;SDS011;18708;53.124;23.190;2022-08-19T21:35:18;10.98;;;6.45;;
32214;SDS011;18708;53.124;23.190;2022-08-19T21:37:44;10.15;;;5.97;;
32214;SDS011;18708;53.124;23.190;2022-08-19T21:40:10;12.75;;;5.95;;
32214;SDS011;18708;53.124;23.190;2022-08-19T21:42:36;12.95;;;6.53;;
32214;SDS011;18708;53.124;23.190;2022-08-19T21:45:03;13.70;;;6.57;;
32214;SDS011;18708;53.124;23.190;2022-08-19T21:47:30;11.27;;;6.30;;
32214;SDS011;18708;53.124;23.190;2022-08-19T21:49:55;14.75;;;6.68;;
32214;SDS011;18708;53.124;23.190;2022-08-19T21:52:25;10.65;;;6.45;;
32214;SDS011;18708;53.124;23.190;2022-08-19T21:54:51;13.02;;;6.53;;
32214;SDS011;18708;53.124;23.190;2022-08-19T21:57:17;14.50;;;6.65;;
32214;SDS011;18708;53.124;23.190;2022-08-19T21:59:43;14.05;;;7.18;;
32214;SDS011;18708;53.124;23.190;2022-08-19T22:02:08;10.90;;;6.43;;
32214;SDS011;18708;53.124;23.190;2022-08-19T22:04:37;10.23;;;6.40;;
32214;SDS011;18708;53.124;23.190;2022-08-19T22:07:06;16.35;;;6.95;;
32214;SDS011;18708;53.124;23.190;2022-08-19T22:09:37;13.95;;;6.80;;
32214;SDS011;18708;53.124;23.190;2022-08-19T22:12:05;17.58;;;7.90;;
32214;SDS011;18708;53.124;23.190;2022-08-19T22:14:33;11.07;;;7.50;;
32214;SDS011;18708;53.124;23.190;2022-08-19T22:17:00;16.27;;;6.75;;
32214;SDS011;18708;53.124;23.190;2022-08-19T22:19:26;13.05;;;7.00;;
32214;SDS011;18708;53.124;23.190;2022-08-19T22:21:53;15.25;;;7.63;;
32214;SDS011;18708;53.124;23.190;2022-08-19T22:24:19;11.93;;;6.85;;
32214;SDS011;18708;53.124;23.190;2022-08-19T22:26:45;13.52;;;7.25;;
32214;SDS011;18708;53.124;23.190;2022-08-19T22:29:11;13.70;;;6.70;;
32214;SDS011;18708;53.124;23.190;2022-08-19T22:31:37;11.57;;;7.18;;
32214;SDS011;18708;53.124;23.190;2022-08-19T22:34:03;17.95;;;8.13;;
32214;SDS011;18708;53.124;23.190;2022-08-19T22:36:30;15.05;;;7.10;;
32214;SDS011;18708;53.124;23.190;2022-08-19T22:38:56;11.38;;;7.43;;
32214;SDS011;18708;53.124;23.190;2022-08-19T22:41:23;12.73;;;7.25;;
32214;SDS011;18708;53.124;23.190;2022-08-19T22:43:49;12.15;;;6.95;;
32214;SDS011;18708;53.124;23.190;2022-08-19T22:46:15;16.08;;;7.10;;
32214;SDS011;18708;53.124;23.190;2022-08-19T22:48:41;12.38;;;7.10;;
32214;SDS011;18708;53.124;23.190;2022-08-19T22:51:07;14.93;;;7.22;;
32214;SDS011;18708;53.124;23.190;2022-08-19T22:53:51;11.25;;;6.80;;
32214;SDS011;18708;53.124;23.190;2022-08-19T22:56:17;17.45;;;7.40;;
32214;SDS011;18708;53.124;23.190;2022-08-19T22:58:44;10.43;;;7.03;;
32214;SDS011;18708;53.124;23.190;2022-08-19T23:01:11;11.45;;;7.30;;
32214;SDS011;18708;53.124;23.190;2022-08-19T23:03:39;14.07;;;6.45;;
32214;SDS011;18708;53.124;23.190;2022-08-19T23:06:05;11.52;;;7.35;;
32214;SDS011;18708;53.124;23.190;2022-08-19T23:08:31;15.82;;;6.80;;
32214;SDS011;18708;53.124;23.190;2022-08-19T23:10:56;14.07;;;7.47;;
32214;SDS011;18708;53.124;23.190;2022-08-19T23:13:22;12.38;;;7.07;;
32214;SDS011;18708;53.124;23.190;2022-08-19T23:15:48;10.73;;;6.78;;
32214;SDS011;18708;53.124;23.190;2022-08-19T23:18:15;12.70;;;7.28;;
32214;SDS011;18708;53.124;23.190;2022-08-19T23:20:41;13.25;;;7.70;;
32214;SDS011;18708;53.124;23.190;2022-08-19T23:23:09;13.00;;;6.93;;
32214;SDS011;18708;53.124;23.190;2022-08-19T23:25:37;12.32;;;6.85;;
32214;SDS011;18708;53.124;23.190;2022-08-19T23:28:05;13.45;;;7.85;;
32214;SDS011;18708;53.124;23.190;2022-08-19T23:30:50;14.60;;;6.72;;
32214;SDS011;18708;53.124;23.190;2022-08-19T23:33:18;11.60;;;6.47;;
32214;SDS011;18708;53.124;23.190;2022-08-19T23:35:48;10.90;;;6.57;;
32214;SDS011;18708;53.124;23.190;2022-08-19T23:38:16;10.38;;;6.60;;
32214;SDS011;18708;53.124;23.190;2022-08-19T23:40:43;13.30;;;7.32;;
32214;SDS011;18708;53.124;23.190;2022-08-19T23:43:09;14.48;;;6.68;;
32214;SDS011;18708;53.124;23.190;2022-08-19T23:45:36;9.57;;;6.80;;
32214;SDS011;18708;53.124;23.190;2022-08-19T23:48:03;13.00;;;6.60;;
32214;SDS011;18708;53.124;23.190;2022-08-19T23:50:30;11.55;;;7.55;;
32214;SDS011;18708;53.124;23.190;2022-08-19T23:52:57;9.98;;;7.15;;
32214;SDS011;18708;53.124;23.190;2022-08-19T23:55:24;10.45;;;6.65;;
32214;SDS011;18708;53.124;23.190;2022-08-19T23:57:52;12.40;;;7.10;;
